createdAt,value
2019-03-12T00:01:38.363Z,22.00
2019-03-12T00:04:04.314Z,22.00
2019-03-12T00:06:30.273Z,22.00
2019-03-12T00:08:56.223Z,22.00
2019-03-12T00:11:22.149Z,22.00
2019-03-12T00:13:48.113Z,22.00
2019-03-12T00:16:14.050Z,22.00
2019-03-12T00:18:40.022Z,21.90
2019-03-12T00:21:06.458Z,21.90
2019-03-12T00:23:32.392Z,21.90
2019-03-12T00:25:58.329Z,21.90
2019-03-12T00:28:24.275Z,21.90
2019-03-12T00:30:50.221Z,21.90
2019-03-12T00:33:16.173Z,21.80
2019-03-12T00:35:42.119Z,21.80
2019-03-12T00:38:08.061Z,21.80
2019-03-12T00:40:34.009Z,21.80
2019-03-12T00:42:59.941Z,21.80
2019-03-12T00:45:26.100Z,21.80
2019-03-12T00:47:52.058Z,21.70
2019-03-12T00:50:18.009Z,21.70
2019-03-12T00:52:44.434Z,21.70
2019-03-12T00:55:10.393Z,21.70
2019-03-12T00:57:36.336Z,21.70
2019-03-12T01:00:02.289Z,21.70
2019-03-12T01:02:28.271Z,21.70
2019-03-12T01:04:54.217Z,21.60
2019-03-12T01:07:20.202Z,21.60
2019-03-12T01:09:46.163Z,21.60
2019-03-12T01:12:12.125Z,21.60
2019-03-12T01:14:38.061Z,21.60
2019-03-12T01:17:04.046Z,21.60
2019-03-12T01:19:29.969Z,21.60
2019-03-12T01:21:55.941Z,21.60
2019-03-12T01:24:21.999Z,21.60
2019-03-12T01:26:47.964Z,21.60
2019-03-12T01:29:13.901Z,21.50
2019-03-12T01:31:39.871Z,21.60
2019-03-12T01:34:05.866Z,21.50
2019-03-12T01:36:31.922Z,21.50
2019-03-12T01:38:57.875Z,21.50
2019-03-12T01:41:23.914Z,21.50
2019-03-12T01:43:50.244Z,21.50
2019-03-12T01:46:16.276Z,21.50
2019-03-12T01:48:42.234Z,21.50
2019-03-12T01:51:08.222Z,21.40
2019-03-12T01:53:34.176Z,21.50
2019-03-12T01:56:00.130Z,21.40
2019-03-12T01:58:26.085Z,21.40
2019-03-12T02:00:52.019Z,21.40
2019-03-12T02:03:17.998Z,21.40
2019-03-12T02:05:44.101Z,21.40
2019-03-12T02:08:10.177Z,21.40
2019-03-12T02:10:36.120Z,21.40
2019-03-12T02:13:02.105Z,21.40
2019-03-12T02:15:28.178Z,21.30
2019-03-12T02:17:54.175Z,21.30
2019-03-12T02:20:20.103Z,21.30
2019-03-12T02:22:46.163Z,21.30
2019-03-12T02:25:12.124Z,21.30
2019-03-12T02:27:38.106Z,21.30
2019-03-12T02:30:04.039Z,21.30
2019-03-12T02:32:30.059Z,21.30
2019-03-12T02:34:56.046Z,21.30
2019-03-12T02:37:22.012Z,21.30
2019-03-12T02:39:48.057Z,21.20
2019-03-12T02:42:14.009Z,21.20
2019-03-12T02:44:40.059Z,21.20
2019-03-12T02:47:06.016Z,21.20
2019-03-12T02:49:32.085Z,21.20
2019-03-12T02:51:58.119Z,21.20
2019-03-12T02:54:24.087Z,21.20
2019-03-12T02:56:50.056Z,21.20
2019-03-12T02:59:16.124Z,21.20
2019-03-12T03:01:42.077Z,21.10
2019-03-12T03:04:08.124Z,21.10
2019-03-12T03:06:38.763Z,21.10
2019-03-12T03:09:04.819Z,21.10
2019-03-12T03:11:31.360Z,21.10
2019-03-12T03:13:57.565Z,21.10
2019-03-12T03:16:24.402Z,21.10
2019-03-12T03:18:50.607Z,21.00
2019-03-12T03:21:16.645Z,21.00
2019-03-12T03:23:42.621Z,21.10
2019-03-12T03:26:08.576Z,21.00
2019-03-12T03:28:34.521Z,21.00
2019-03-12T03:31:00.501Z,21.00
2019-03-12T03:33:26.571Z,21.00
2019-03-12T03:35:52.604Z,21.00
2019-03-12T03:38:18.555Z,21.00
2019-03-12T03:40:44.526Z,21.00
2019-03-12T03:43:10.572Z,21.00
2019-03-12T03:45:36.514Z,21.00
2019-03-12T03:48:02.467Z,21.00
2019-03-12T03:50:28.518Z,21.00
2019-03-12T03:52:55.597Z,21.00
2019-03-12T03:55:21.630Z,21.10
2019-03-12T03:57:47.567Z,21.00
2019-03-12T04:00:13.505Z,21.00
2019-03-12T04:02:39.449Z,21.00
2019-03-12T04:05:05.411Z,21.00
2019-03-12T04:07:31.464Z,21.00
2019-03-12T04:09:57.491Z,20.90
2019-03-12T04:12:23.432Z,20.90
2019-03-12T04:14:49.408Z,20.90
2019-03-12T04:17:15.462Z,20.90
2019-03-12T04:19:41.442Z,20.90
2019-03-12T04:22:07.378Z,20.90
2019-03-12T04:24:33.343Z,20.90
2019-03-12T04:26:59.419Z,20.90
2019-03-12T04:29:25.632Z,20.90
2019-03-12T04:31:51.742Z,20.90
2019-03-12T04:34:17.712Z,20.80
2019-03-12T04:36:43.768Z,20.90
2019-03-12T04:39:09.821Z,20.80
2019-03-12T04:41:35.763Z,20.80
2019-03-12T04:44:01.707Z,20.80
2019-03-12T04:46:27.692Z,20.80
2019-03-12T04:48:53.739Z,20.80
2019-03-12T04:51:19.687Z,20.80
2019-03-12T04:53:45.743Z,20.80
2019-03-12T04:56:11.701Z,20.80
2019-03-12T04:58:37.644Z,20.80
2019-03-12T05:01:03.616Z,20.80
2019-03-12T05:03:29.563Z,20.80
2019-03-12T05:05:55.512Z,20.80
2019-03-12T05:08:21.463Z,20.80
2019-03-12T05:10:47.510Z,20.80
2019-03-12T05:13:13.479Z,20.80
2019-03-12T05:15:39.443Z,20.80
2019-03-12T05:18:05.387Z,20.80
2019-03-12T05:20:31.351Z,20.80
2019-03-12T05:22:57.309Z,20.80
2019-03-12T05:25:23.252Z,20.80
2019-03-12T05:27:49.231Z,20.80
2019-03-12T05:30:15.172Z,20.80
2019-03-12T05:32:41.675Z,20.80
2019-03-12T05:35:07.643Z,20.80
2019-03-12T05:37:33.618Z,20.80
2019-03-12T05:39:59.593Z,20.90
2019-03-12T05:42:25.638Z,20.80
2019-03-12T05:44:51.582Z,20.90
2019-03-12T05:47:17.534Z,20.90
2019-03-12T05:49:43.485Z,20.90
2019-03-12T05:52:09.427Z,20.90
2019-03-12T05:54:35.400Z,20.90
2019-03-12T05:57:01.430Z,20.90
2019-03-12T05:59:27.432Z,20.90
2019-03-12T06:01:53.399Z,21.00
2019-03-12T06:04:19.392Z,21.00
2019-03-12T06:06:45.333Z,21.00
2019-03-12T06:09:11.383Z,21.00
2019-03-12T06:11:37.350Z,21.00
2019-03-12T06:14:03.320Z,21.10
2019-03-12T06:16:29.299Z,21.10
2019-03-12T06:18:55.289Z,21.00
2019-03-12T06:21:21.224Z,21.00
2019-03-12T06:23:47.273Z,21.00
2019-03-12T06:26:13.334Z,21.00
2019-03-12T06:28:39.320Z,21.00
2019-03-12T06:31:07.316Z,21.00
2019-03-12T06:33:53.311Z,21.00
2019-03-12T06:36:23.918Z,20.90
2019-03-12T06:39:08.773Z,21.00
2019-03-12T06:41:45.550Z,21.00
2019-03-12T06:44:22.263Z,20.90
2019-03-12T06:47:02.476Z,21.00
2019-03-12T06:49:30.683Z,21.00
2019-03-12T06:52:04.580Z,20.90
2019-03-12T06:54:32.964Z,20.90
2019-03-12T06:57:06.611Z,20.90
2019-03-12T06:59:52.637Z,20.90
2019-03-12T07:02:23.915Z,20.90
2019-03-12T07:04:51.890Z,20.90
2019-03-12T07:07:31.622Z,20.90
2019-03-12T07:10:05.289Z,20.90
2019-03-12T07:12:39.192Z,20.90
2019-03-12T07:15:10.168Z,20.90
2019-03-12T07:17:41.119Z,20.90
2019-03-12T07:20:25.688Z,21.00
2019-03-12T07:23:02.866Z,21.00
2019-03-12T07:25:36.773Z,21.00
2019-03-12T07:28:16.862Z,21.00
2019-03-12T07:30:53.893Z,21.00
2019-03-12T07:33:24.762Z,21.00
2019-03-12T07:36:04.999Z,21.00
2019-03-12T07:38:38.970Z,21.00
2019-03-12T07:41:22.929Z,21.10
2019-03-12T07:43:45.725Z,21.10
2019-03-12T07:46:13.596Z,21.20
2019-03-12T07:48:41.462Z,21.30
2019-03-12T07:51:09.314Z,21.30
2019-03-12T07:53:37.180Z,21.40
2019-03-12T07:56:20.252Z,21.50
2019-03-12T07:58:48.222Z,21.60
2019-03-12T08:01:25.213Z,21.70
2019-03-12T08:03:58.931Z,21.80
2019-03-12T08:06:42.480Z,21.80
2019-03-12T08:09:13.406Z,21.90
2019-03-12T08:11:47.212Z,21.90
2019-03-12T08:14:18.131Z,22.00
2019-03-12T08:17:02.757Z,22.10
2019-03-12T08:19:46.023Z,22.10
2019-03-12T08:22:14.049Z,22.20
2019-03-12T08:24:45.049Z,22.20
2019-03-12T08:27:12.911Z,22.30
2019-03-12T08:29:46.842Z,22.30
2019-03-12T08:32:14.721Z,22.40
2019-03-12T08:34:54.958Z,22.40
2019-03-12T08:37:22.903Z,22.40
2019-03-12T08:39:53.642Z,22.40
2019-03-12T08:42:38.974Z,22.40
2019-03-12T08:45:19.132Z,22.20
2019-03-12T08:47:46.987Z,22.50
2019-03-12T08:50:14.896Z,22.50
2019-03-12T08:52:43.103Z,22.40
2019-03-12T08:55:17.084Z,22.40
2019-03-12T08:57:45.035Z,22.40
2019-03-12T09:00:24.159Z,22.40
2019-03-12T09:03:08.556Z,22.40
2019-03-12T09:05:39.447Z,22.40
2019-03-12T09:08:24.111Z,22.50
2019-03-12T09:11:01.163Z,22.60
2019-03-12T09:13:38.365Z,22.60
2019-03-12T09:16:12.160Z,22.70
2019-03-12T09:18:43.066Z,22.70
2019-03-12T09:21:11.017Z,22.70
2019-03-12T09:23:38.860Z,22.70
2019-03-12T09:26:09.811Z,22.60
2019-03-12T09:28:46.947Z,22.60
2019-03-12T09:31:26.852Z,22.60
2019-03-12T09:33:54.807Z,22.60
2019-03-12T09:36:37.827Z,22.60
2019-03-12T09:39:05.737Z,22.70
2019-03-12T09:41:36.737Z,22.70
2019-03-12T09:44:10.799Z,22.70
2019-03-12T09:46:38.695Z,22.80
2019-03-12T09:49:21.763Z,22.80
2019-03-12T09:51:49.714Z,22.80
2019-03-12T09:54:34.544Z,22.80
2019-03-12T09:57:11.703Z,22.80
2019-03-12T09:59:56.603Z,22.90
2019-03-12T10:02:41.315Z,22.90
2019-03-12T10:05:27.735Z,22.90
2019-03-12T10:08:01.851Z,22.90
2019-03-12T10:10:32.729Z,22.90
2019-03-12T10:13:12.741Z,22.90
2019-03-12T10:15:49.858Z,22.90
2019-03-12T10:18:17.725Z,22.90
2019-03-12T10:20:45.578Z,22.90
2019-03-12T10:23:13.440Z,23.00
2019-03-12T10:25:58.031Z,22.90
2019-03-12T10:28:28.753Z,23.00
2019-03-12T10:30:59.432Z,23.00
2019-03-12T10:33:33.291Z,23.00
2019-03-12T10:36:01.393Z,23.00
2019-03-12T10:38:29.322Z,23.00
2019-03-12T10:40:57.168Z,23.00
2019-03-12T10:43:25.049Z,23.00
2019-03-12T10:46:01.962Z,23.00
2019-03-12T10:48:27.918Z,22.90
2019-03-12T10:50:53.851Z,22.90
2019-03-12T10:53:19.798Z,22.90
2019-03-12T10:55:45.741Z,22.90
2019-03-12T10:58:11.709Z,23.00
2019-03-12T11:00:38.678Z,23.00
2019-03-12T11:03:04.725Z,23.00
2019-03-12T11:05:30.713Z,23.00
2019-03-12T11:07:56.750Z,23.00
2019-03-12T11:10:22.711Z,23.10
2019-03-12T11:12:48.683Z,23.00
2019-03-12T11:15:14.711Z,23.10
2019-03-12T11:17:49.595Z,23.10
2019-03-12T11:20:08.511Z,23.10
2019-03-12T11:22:34.470Z,23.00
2019-03-12T11:25:00.428Z,23.10
2019-03-12T11:27:26.376Z,23.10
2019-03-12T11:29:52.349Z,23.20
2019-03-12T11:32:18.337Z,23.20
2019-03-12T11:34:44.360Z,23.20
2019-03-12T11:37:10.334Z,23.20
2019-03-12T11:39:36.317Z,23.20
2019-03-12T11:42:02.353Z,23.20
2019-03-12T11:44:28.483Z,23.20
2019-03-12T11:46:54.891Z,23.20
2019-03-12T11:49:21.085Z,23.20
2019-03-12T11:51:47.069Z,23.20
2019-03-12T11:54:13.912Z,23.20
2019-03-12T11:56:39.861Z,23.30
2019-03-12T11:59:05.795Z,23.30
2019-03-12T12:01:31.846Z,23.30
2019-03-12T12:03:57.767Z,23.30
2019-03-12T12:06:23.761Z,23.30
2019-03-12T12:08:49.801Z,23.30
2019-03-12T12:11:15.850Z,23.30
2019-03-12T12:13:41.900Z,23.30
2019-03-12T12:16:07.854Z,23.30
2019-03-12T12:18:33.933Z,23.30
2019-03-12T12:21:00.014Z,23.20
2019-03-12T12:23:26.055Z,23.20
2019-03-12T12:25:51.984Z,23.20
2019-03-12T12:28:17.942Z,23.20
2019-03-12T12:30:43.890Z,23.20
2019-03-12T12:33:09.824Z,23.20
2019-03-12T12:35:35.900Z,23.20
2019-03-12T12:38:01.893Z,23.20
2019-03-12T12:40:27.923Z,23.30
2019-03-12T12:42:53.878Z,23.30
2019-03-12T12:45:19.854Z,23.30
2019-03-12T12:47:45.927Z,23.30
2019-03-12T12:50:11.896Z,23.30
2019-03-12T12:52:37.860Z,23.30
2019-03-12T12:55:03.936Z,23.30
2019-03-12T12:57:30.009Z,23.30
2019-03-12T12:59:56.079Z,23.30
2019-03-12T13:02:22.110Z,23.30
2019-03-12T13:04:48.090Z,23.30
2019-03-12T13:07:14.128Z,23.30
2019-03-12T13:09:40.075Z,23.30
2019-03-12T13:12:06.092Z,23.30
2019-03-12T13:14:41.391Z,23.30
2019-03-12T13:17:01.540Z,23.30
2019-03-12T13:19:27.580Z,23.30
2019-03-12T13:21:53.695Z,23.40
2019-03-12T13:24:19.662Z,23.40
2019-03-12T13:26:45.713Z,23.30
2019-03-12T13:29:11.675Z,23.40
2019-03-12T13:31:37.640Z,23.40
2019-03-12T13:34:03.681Z,23.40
2019-03-12T13:36:29.630Z,23.40
2019-03-12T13:38:55.586Z,23.40
2019-03-12T13:41:21.661Z,23.30
2019-03-12T13:43:47.644Z,23.40
2019-03-12T13:46:13.689Z,23.40
2019-03-12T13:48:39.797Z,23.40
2019-03-12T13:51:05.847Z,23.40
2019-03-12T13:53:31.791Z,23.40
2019-03-12T13:55:57.854Z,23.40
2019-03-12T13:58:23.781Z,23.40
2019-03-12T14:00:49.753Z,23.40
2019-03-12T14:03:15.811Z,23.40
2019-03-12T14:05:41.759Z,23.40
2019-03-12T14:08:07.722Z,23.40
2019-03-12T14:10:33.676Z,23.30
2019-03-12T14:12:59.648Z,23.30
2019-03-12T14:15:25.591Z,23.20
2019-03-12T14:17:51.646Z,23.20
2019-03-12T14:20:17.684Z,23.20
2019-03-12T14:22:43.685Z,23.20
2019-03-12T14:25:09.783Z,23.20
2019-03-12T14:27:35.760Z,23.20
2019-03-12T14:30:01.745Z,23.30
2019-03-12T14:32:27.814Z,23.30
2019-03-12T14:34:53.900Z,23.30
2019-03-12T14:37:19.978Z,23.30
2019-03-12T14:39:45.958Z,23.30
2019-03-12T14:42:12.002Z,23.30
2019-03-12T14:44:38.114Z,23.30
2019-03-12T14:47:06.191Z,23.30
2019-03-12T14:49:32.098Z,23.40
2019-03-12T14:51:58.128Z,23.30
2019-03-12T14:54:25.022Z,23.30
2019-03-12T14:56:50.973Z,23.90
2019-03-12T14:59:17.201Z,23.40
2019-03-12T15:01:43.207Z,23.30
2019-03-12T15:04:09.146Z,23.30
2019-03-12T15:06:35.102Z,23.30
2019-03-12T15:09:01.081Z,23.40
2019-03-12T15:11:27.062Z,23.30
2019-03-12T15:13:53.034Z,23.30
2019-03-12T15:16:19.084Z,23.30
2019-03-12T15:18:45.058Z,23.40
2019-03-12T15:21:11.102Z,23.40
2019-03-12T15:23:37.244Z,23.40
2019-03-12T15:26:03.468Z,23.40
2019-03-12T15:28:29.531Z,23.40
2019-03-12T15:30:55.514Z,23.40
2019-03-12T15:33:21.580Z,23.40
2019-03-12T15:35:47.559Z,23.50
2019-03-12T15:38:13.660Z,23.40
2019-03-12T15:40:39.698Z,23.40
2019-03-12T15:43:05.666Z,23.40
2019-03-12T15:45:31.607Z,23.30
2019-03-12T15:47:57.571Z,23.30
2019-03-12T15:50:23.622Z,23.30
2019-03-12T15:52:49.593Z,23.30
2019-03-12T15:55:15.634Z,23.30
2019-03-12T15:57:41.588Z,23.30
2019-03-12T16:00:07.552Z,23.30
2019-03-12T16:02:33.518Z,23.30
2019-03-12T16:04:59.507Z,23.40
2019-03-12T16:07:25.472Z,23.40
2019-03-12T16:09:51.439Z,23.40
2019-03-12T16:12:17.390Z,23.40
2019-03-12T16:14:43.325Z,23.40
2019-03-12T16:17:09.292Z,23.40
2019-03-12T16:19:35.345Z,23.40
2019-03-12T16:22:01.314Z,23.30
2019-03-12T16:24:27.988Z,23.40
2019-03-12T16:26:53.955Z,23.40
2019-03-12T16:29:19.997Z,23.30
2019-03-12T16:31:45.960Z,23.30
2019-03-12T16:34:12.708Z,23.30
2019-03-12T16:36:38.664Z,23.30
2019-03-12T16:39:04.710Z,23.30
2019-03-12T16:41:30.749Z,23.40
2019-03-12T16:43:56.734Z,23.30
2019-03-12T16:46:22.703Z,23.40
2019-03-12T16:48:48.757Z,23.40
2019-03-12T16:51:14.817Z,23.40
2019-03-12T16:53:40.884Z,23.40
2019-03-12T16:56:06.828Z,23.40
2019-03-12T16:58:32.802Z,23.40
2019-03-12T17:00:58.733Z,23.40
2019-03-12T17:03:24.700Z,23.40
2019-03-12T17:05:50.647Z,23.30
2019-03-12T17:08:16.606Z,23.30
2019-03-12T17:10:55.650Z,23.20
2019-03-12T17:13:10.422Z,23.20
2019-03-12T17:15:36.494Z,23.20
2019-03-12T17:18:02.464Z,23.20
2019-03-12T17:20:28.432Z,23.10
2019-03-12T17:22:54.379Z,23.10
2019-03-12T17:25:20.363Z,23.10
2019-03-12T17:27:46.313Z,23.10
2019-03-12T17:30:12.307Z,23.10
2019-03-12T17:32:38.253Z,23.00
2019-03-12T17:35:04.194Z,23.10
2019-03-12T17:37:30.158Z,23.10
2019-03-12T17:39:56.126Z,23.10
2019-03-12T17:42:22.179Z,23.00
2019-03-12T17:44:48.127Z,23.00
2019-03-12T17:47:14.097Z,23.00
2019-03-12T17:49:40.044Z,23.00
2019-03-12T17:52:06.027Z,22.90
2019-03-12T17:54:33.082Z,22.90
2019-03-12T17:56:59.179Z,22.90
2019-03-12T17:59:25.169Z,22.90
2019-03-12T18:01:51.135Z,22.90
2019-03-12T18:04:17.265Z,22.80
2019-03-12T18:06:43.225Z,22.80
2019-03-12T18:09:09.177Z,22.80
2019-03-12T18:11:35.207Z,22.80
2019-03-12T18:14:01.163Z,22.80
2019-03-12T18:16:40.067Z,22.70
2019-03-12T18:18:55.086Z,22.70
2019-03-12T18:21:21.030Z,22.70
2019-03-12T18:23:47.005Z,22.70
2019-03-12T18:26:12.937Z,22.60
2019-03-12T18:28:38.906Z,22.60
2019-03-12T18:31:04.839Z,22.60
2019-03-12T18:33:30.783Z,22.60
2019-03-12T18:35:56.747Z,22.60
2019-03-12T18:38:22.716Z,22.50
2019-03-12T18:40:48.763Z,22.60
2019-03-12T18:43:15.109Z,22.60
2019-03-12T18:45:41.261Z,22.60
2019-03-12T18:48:07.205Z,22.50
2019-03-12T18:50:33.173Z,22.50
2019-03-12T18:52:59.117Z,22.50
2019-03-12T18:55:25.091Z,22.50
2019-03-12T18:57:51.073Z,22.50
2019-03-12T19:00:17.044Z,22.50
2019-03-12T19:02:43.027Z,22.50
2019-03-12T19:05:08.983Z,22.50
2019-03-12T19:07:34.995Z,22.50
2019-03-12T19:10:00.940Z,22.50
2019-03-12T19:12:26.910Z,22.50
2019-03-12T19:14:52.857Z,22.50
2019-03-12T19:17:18.850Z,22.50
2019-03-12T19:19:44.809Z,22.50
2019-03-12T19:22:10.882Z,22.50
2019-03-12T19:24:37.168Z,22.50
2019-03-12T19:27:03.695Z,22.50
2019-03-12T19:29:29.643Z,22.50
2019-03-12T19:31:57.490Z,22.60
2019-03-12T19:34:25.261Z,22.60
2019-03-12T19:36:51.333Z,22.60
2019-03-12T19:39:17.551Z,22.60
2019-03-12T19:41:43.501Z,22.60
2019-03-12T19:44:09.925Z,22.60
2019-03-12T19:46:35.883Z,22.60
2019-03-12T19:49:01.850Z,22.60
2019-03-12T19:51:27.800Z,22.60
2019-03-12T19:53:53.740Z,22.60
2019-03-12T19:56:19.727Z,22.60
2019-03-12T19:58:45.775Z,22.60
2019-03-12T20:01:11.740Z,22.60
2019-03-12T20:03:37.678Z,22.60
2019-03-12T20:06:03.653Z,22.60
2019-03-12T20:08:29.606Z,22.60
2019-03-12T20:10:56.906Z,22.60
2019-03-12T20:13:22.867Z,22.60
2019-03-12T20:15:48.805Z,22.60
2019-03-12T20:18:14.752Z,22.60
2019-03-12T20:20:43.983Z,22.60
2019-03-12T20:23:09.956Z,22.60
2019-03-12T20:25:35.909Z,22.60
2019-03-12T20:28:01.909Z,22.60
2019-03-12T20:30:28.073Z,22.60
2019-03-12T20:32:54.055Z,22.60
2019-03-12T20:35:20.024Z,22.50
2019-03-12T20:37:45.996Z,22.50
2019-03-12T20:40:12.023Z,22.50
2019-03-12T20:42:38.095Z,22.50
2019-03-12T20:45:04.063Z,22.50
2019-03-12T20:47:30.020Z,22.50
2019-03-12T20:49:55.968Z,22.50
2019-03-12T20:52:21.912Z,22.40
2019-03-12T20:54:47.886Z,22.40
2019-03-12T20:57:14.015Z,22.40
2019-03-12T20:59:40.061Z,22.50
2019-03-12T21:02:06.108Z,22.40
2019-03-12T21:04:32.092Z,22.40
2019-03-12T21:06:58.056Z,22.40
2019-03-12T21:09:24.037Z,22.40
2019-03-12T21:11:49.996Z,22.40
2019-03-12T21:14:16.172Z,22.40
2019-03-12T21:16:42.242Z,22.30
2019-03-12T21:19:08.202Z,22.30
2019-03-12T21:21:34.164Z,22.30
2019-03-12T21:24:01.319Z,22.30
2019-03-12T21:26:27.674Z,22.30
2019-03-12T21:28:53.701Z,22.30
2019-03-12T21:31:19.973Z,22.30
2019-03-12T21:33:45.973Z,22.30
2019-03-12T21:36:11.932Z,22.30
2019-03-12T21:38:37.867Z,22.30
2019-03-12T21:41:03.832Z,22.30
2019-03-12T21:43:29.805Z,22.30
2019-03-12T21:45:55.863Z,22.20
2019-03-12T21:48:21.833Z,22.20
2019-03-12T21:50:47.840Z,22.20
2019-03-12T21:53:13.948Z,22.20
2019-03-12T21:55:39.995Z,22.20
2019-03-12T21:58:05.942Z,22.20
2019-03-12T22:00:31.944Z,22.10
2019-03-12T22:02:58.091Z,22.10
2019-03-12T22:05:24.149Z,22.10
2019-03-12T22:07:50.149Z,22.00
2019-03-12T22:10:16.163Z,22.00
2019-03-12T22:12:42.225Z,22.00
2019-03-12T22:15:08.239Z,22.00
2019-03-12T22:17:34.328Z,21.90
2019-03-12T22:20:00.589Z,21.90
2019-03-12T22:22:28.606Z,21.90
2019-03-12T22:24:54.817Z,21.90
2019-03-12T22:27:20.875Z,21.90
2019-03-12T22:29:46.846Z,21.80
2019-03-12T22:32:12.961Z,21.80
2019-03-12T22:34:39.044Z,21.80
2019-03-12T22:37:05.011Z,21.80
2019-03-12T22:39:31.085Z,21.80
2019-03-12T22:41:57.159Z,21.70
2019-03-12T22:44:23.242Z,21.70
2019-03-12T22:46:49.233Z,21.70
2019-03-12T22:49:15.208Z,21.70
2019-03-12T22:51:41.291Z,21.60
2019-03-12T22:54:07.381Z,21.60
2019-03-12T22:56:33.464Z,21.60
2019-03-12T22:58:59.660Z,21.60
2019-03-12T23:01:25.653Z,21.60
2019-03-12T23:03:51.728Z,21.60
2019-03-12T23:06:17.824Z,21.50
2019-03-12T23:08:43.900Z,21.50
2019-03-12T23:11:09.895Z,21.50
2019-03-12T23:13:35.967Z,21.50
2019-03-12T23:16:02.033Z,21.60
2019-03-12T23:18:27.996Z,21.50
2019-03-12T23:20:53.987Z,21.50
2019-03-12T23:23:20.065Z,21.50
2019-03-12T23:25:46.147Z,21.50
2019-03-12T23:28:13.045Z,21.50
2019-03-12T23:30:38.976Z,21.50
2019-03-12T23:33:04.965Z,21.40
2019-03-12T23:35:31.001Z,21.40
2019-03-12T23:37:56.932Z,21.40
2019-03-12T23:40:22.898Z,21.40
2019-03-12T23:42:48.845Z,21.30
2019-03-12T23:45:14.786Z,21.30
2019-03-12T23:47:40.738Z,21.30
2019-03-12T23:50:06.821Z,21.30
2019-03-12T23:52:32.898Z,21.30
2019-03-12T23:54:58.857Z,21.30
2019-03-12T23:57:24.806Z,21.30
2019-03-12T23:59:50.749Z,21.30
